Schedule Details

Flight Number: CPX308
Departure: Theodore Francis Green State Airport (KPVD) at N/A
Arrival: Chicago/Rockford International Airport (KRFD) at N/A
Route: BAF HNK NUGNT DJB J60 JOT V171 RFD


Current Weather Information
KPVD 180551Z 01006KT 9SM OVC055 M01/M04 A3001 RMK AO2 SNB0458E33GSB10E23 SLP163 P0000 60000 T10111044 10000 21011 58003
KRFD 180642Z 35010KT 1 1/2SM -SN BR OVC026 M07/M09 A3004 RMK AO2 P0001 T10671089

Route Map